sensor_id;sensor_type;location;lat;lon;timestamp;P1;durP1;ratioP1;P2;durP2;ratioP2
57561;SDS011;43397;51.530;5.974;2023-07-13T00:01:02;9.40;;;4.10;;
57561;SDS011;43397;51.530;5.974;2023-07-13T00:03:29;8.32;;;3.55;;
57561;SDS011;43397;51.530;5.974;2023-07-13T00:05:57;8.85;;;3.60;;
57561;SDS011;43397;51.530;5.974;2023-07-13T00:08:23;10.13;;;3.65;;
57561;SDS011;43397;51.530;5.974;2023-07-13T00:10:49;7.43;;;3.38;;
57561;SDS011;43397;51.530;5.974;2023-07-13T00:13:16;9.23;;;3.38;;
57561;SDS011;43397;51.530;5.974;2023-07-13T00:15:42;11.82;;;3.55;;
57561;SDS011;43397;51.530;5.974;2023-07-13T00:18:07;9.85;;;3.28;;
57561;SDS011;43397;51.530;5.974;2023-07-13T00:20:34;7.00;;;3.40;;
57561;SDS011;43397;51.530;5.974;2023-07-13T00:23:00;10.40;;;4.20;;
57561;SDS011;43397;51.530;5.974;2023-07-13T00:25:25;10.93;;;4.07;;
57561;SDS011;43397;51.530;5.974;2023-07-13T00:27:51;9.23;;;3.90;;
57561;SDS011;43397;51.530;5.974;2023-07-13T00:30:17;7.60;;;3.78;;
57561;SDS011;43397;51.530;5.974;2023-07-13T00:32:42;10.48;;;4.20;;
57561;SDS011;43397;51.530;5.974;2023-07-13T00:35:08;8.45;;;3.85;;
57561;SDS011;43397;51.530;5.974;2023-07-13T00:37:35;12.13;;;4.43;;
57561;SDS011;43397;51.530;5.974;2023-07-13T00:40:01;9.38;;;3.78;;
57561;SDS011;43397;51.530;5.974;2023-07-13T00:42:26;9.93;;;4.38;;
57561;SDS011;43397;51.530;5.974;2023-07-13T00:45:01;8.35;;;3.63;;
57561;SDS011;43397;51.530;5.974;2023-07-13T00:47:27;9.25;;;3.90;;
57561;SDS011;43397;51.530;5.974;2023-07-13T00:49:52;9.23;;;3.80;;
57561;SDS011;43397;51.530;5.974;2023-07-13T00:52:19;7.28;;;2.90;;
57561;SDS011;43397;51.530;5.974;2023-07-13T00:54:46;7.30;;;3.05;;
57561;SDS011;43397;51.530;5.974;2023-07-13T00:57:12;7.50;;;3.28;;
57561;SDS011;43397;51.530;5.974;2023-07-13T00:59:39;9.07;;;3.08;;
57561;SDS011;43397;51.530;5.974;2023-07-13T01:02:07;9.40;;;3.30;;
57561;SDS011;43397;51.530;5.974;2023-07-13T01:04:33;8.85;;;3.10;;
57561;SDS011;43397;51.530;5.974;2023-07-13T01:06:58;8.57;;;3.42;;
57561;SDS011;43397;51.530;5.974;2023-07-13T01:09:25;9.80;;;3.22;;
57561;SDS011;43397;51.530;5.974;2023-07-13T01:11:52;6.40;;;3.33;;
57561;SDS011;43397;51.530;5.974;2023-07-13T01:14:18;10.40;;;4.25;;
57561;SDS011;43397;51.530;5.974;2023-07-13T01:16:44;8.07;;;3.65;;
57561;SDS011;43397;51.530;5.974;2023-07-13T01:19:13;6.70;;;3.40;;
57561;SDS011;43397;51.530;5.974;2023-07-13T01:21:41;8.60;;;3.47;;
57561;SDS011;43397;51.530;5.974;2023-07-13T01:24:07;9.10;;;4.00;;
57561;SDS011;43397;51.530;5.974;2023-07-13T01:26:32;9.40;;;3.78;;
57561;SDS011;43397;51.530;5.974;2023-07-13T01:28:58;10.15;;;3.40;;
57561;SDS011;43397;51.530;5.974;2023-07-13T01:31:23;8.38;;;3.15;;
57561;SDS011;43397;51.530;5.974;2023-07-13T01:33:49;8.77;;;3.50;;
57561;SDS011;43397;51.530;5.974;2023-07-13T01:36:14;9.63;;;3.58;;
57561;SDS011;43397;51.530;5.974;2023-07-13T01:38:41;8.45;;;2.97;;
57561;SDS011;43397;51.530;5.974;2023-07-13T01:41:07;12.27;;;3.65;;
57561;SDS011;43397;51.530;5.974;2023-07-13T01:43:32;10.20;;;3.80;;
57561;SDS011;43397;51.530;5.974;2023-07-13T01:45:58;10.95;;;4.05;;
57561;SDS011;43397;51.530;5.974;2023-07-13T01:48:23;7.55;;;3.28;;
57561;SDS011;43397;51.530;5.974;2023-07-13T01:50:49;10.07;;;3.75;;
57561;SDS011;43397;51.530;5.974;2023-07-13T01:53:14;7.10;;;3.38;;
57561;SDS011;43397;51.530;5.974;2023-07-13T01:55:41;7.20;;;3.45;;
57561;SDS011;43397;51.530;5.974;2023-07-13T01:58:07;8.02;;;3.28;;
57561;SDS011;43397;51.530;5.974;2023-07-13T02:00:32;7.60;;;3.17;;
57561;SDS011;43397;51.530;5.974;2023-07-13T02:02:58;11.52;;;3.50;;
57561;SDS011;43397;51.530;5.974;2023-07-13T02:05:23;6.85;;;2.97;;
57561;SDS011;43397;51.530;5.974;2023-07-13T02:07:49;6.50;;;3.38;;
57561;SDS011;43397;51.530;5.974;2023-07-13T02:10:14;9.30;;;3.13;;
57561;SDS011;43397;51.530;5.974;2023-07-13T02:12:41;6.45;;;3.22;;
57561;SDS011;43397;51.530;5.974;2023-07-13T02:15:07;7.03;;;3.40;;
57561;SDS011;43397;51.530;5.974;2023-07-13T02:17:33;5.70;;;2.65;;
57561;SDS011;43397;51.530;5.974;2023-07-13T02:19:59;10.25;;;3.17;;
57561;SDS011;43397;51.530;5.974;2023-07-13T02:22:24;8.20;;;3.53;;
57561;SDS011;43397;51.530;5.974;2023-07-13T02:24:50;10.48;;;4.07;;
57561;SDS011;43397;51.530;5.974;2023-07-13T02:27:15;9.85;;;3.50;;
57561;SDS011;43397;51.530;5.974;2023-07-13T02:29:42;8.38;;;4.30;;
57561;SDS011;43397;51.530;5.974;2023-07-13T02:32:08;9.60;;;3.90;;
57561;SDS011;43397;51.530;5.974;2023-07-13T02:34:33;9.50;;;3.47;;
57561;SDS011;43397;51.530;5.974;2023-07-13T02:36:59;12.63;;;3.70;;
57561;SDS011;43397;51.530;5.974;2023-07-13T02:39:24;8.93;;;3.72;;
57561;SDS011;43397;51.530;5.974;2023-07-13T02:41:50;8.10;;;3.45;;
57561;SDS011;43397;51.530;5.974;2023-07-13T02:44:15;9.95;;;4.05;;
57561;SDS011;43397;51.530;5.974;2023-07-13T02:46:42;9.88;;;3.72;;
57561;SDS011;43397;51.530;5.974;2023-07-13T02:49:08;6.38;;;3.40;;
57561;SDS011;43397;51.530;5.974;2023-07-13T02:51:33;8.23;;;3.67;;
57561;SDS011;43397;51.530;5.974;2023-07-13T02:53:59;8.38;;;3.45;;
57561;SDS011;43397;51.530;5.974;2023-07-13T02:56:25;8.50;;;3.97;;
57561;SDS011;43397;51.530;5.974;2023-07-13T02:58:51;8.65;;;4.15;;
57561;SDS011;43397;51.530;5.974;2023-07-13T03:01:16;11.40;;;4.10;;
57561;SDS011;43397;51.530;5.974;2023-07-13T03:03:44;9.88;;;4.30;;
57561;SDS011;43397;51.530;5.974;2023-07-13T03:06:09;10.55;;;3.47;;
57561;SDS011;43397;51.530;5.974;2023-07-13T03:08:35;11.18;;;4.35;;
57561;SDS011;43397;51.530;5.974;2023-07-13T03:11:00;12.32;;;4.25;;
57561;SDS011;43397;51.530;5.974;2023-07-13T03:13:26;9.98;;;3.90;;
57561;SDS011;43397;51.530;5.974;2023-07-13T03:15:52;12.60;;;3.92;;
57561;SDS011;43397;51.530;5.974;2023-07-13T03:18:17;9.77;;;3.70;;
57561;SDS011;43397;51.530;5.974;2023-07-13T03:20:44;9.52;;;3.60;;
57561;SDS011;43397;51.530;5.974;2023-07-13T03:23:10;7.90;;;4.63;;
57561;SDS011;43397;51.530;5.974;2023-07-13T03:25:37;9.07;;;3.85;;
57561;SDS011;43397;51.530;5.974;2023-07-13T03:28:03;8.30;;;3.53;;
57561;SDS011;43397;51.530;5.974;2023-07-13T03:30:29;12.57;;;4.55;;
57561;SDS011;43397;51.530;5.974;2023-07-13T03:32:54;12.27;;;4.15;;
57561;SDS011;43397;51.530;5.974;2023-07-13T03:35:20;11.70;;;4.13;;
57561;SDS011;43397;51.530;5.974;2023-07-13T03:37:46;10.55;;;4.00;;
57561;SDS011;43397;51.530;5.974;2023-07-13T03:40:12;9.55;;;4.05;;
57561;SDS011;43397;51.530;5.974;2023-07-13T03:42:38;10.15;;;4.65;;
57561;SDS011;43397;51.530;5.974;2023-07-13T03:45:03;11.15;;;4.13;;
57561;SDS011;43397;51.530;5.974;2023-07-13T03:47:29;11.10;;;4.85;;
57561;SDS011;43397;51.530;5.974;2023-07-13T03:49:55;9.68;;;3.70;;
57561;SDS011;43397;51.530;5.974;2023-07-13T03:52:20;11.55;;;3.85;;
57561;SDS011;43397;51.530;5.974;2023-07-13T03:54:47;8.60;;;4.10;;
57561;SDS011;43397;51.530;5.974;2023-07-13T03:57:13;12.15;;;3.45;;
57561;SDS011;43397;51.530;5.974;2023-07-13T03:59:38;12.88;;;4.05;;
57561;SDS011;43397;51.530;5.974;2023-07-13T04:02:04;10.63;;;3.95;;
57561;SDS011;43397;51.530;5.974;2023-07-13T04:04:29;10.18;;;4.32;;
57561;SDS011;43397;51.530;5.974;2023-07-13T04:06:55;9.45;;;4.10;;
57561;SDS011;43397;51.530;5.974;2023-07-13T04:09:20;12.48;;;5.10;;
57561;SDS011;43397;51.530;5.974;2023-07-13T04:11:47;9.02;;;4.00;;
57561;SDS011;43397;51.530;5.974;2023-07-13T04:14:13;8.32;;;3.97;;
57561;SDS011;43397;51.530;5.974;2023-07-13T04:16:38;9.38;;;4.15;;
57561;SDS011;43397;51.530;5.974;2023-07-13T04:19:04;10.32;;;4.13;;
57561;SDS011;43397;51.530;5.974;2023-07-13T04:21:30;10.02;;;3.97;;
57561;SDS011;43397;51.530;5.974;2023-07-13T04:23:56;8.82;;;3.97;;
57561;SDS011;43397;51.530;5.974;2023-07-13T04:26:21;11.82;;;3.97;;
57561;SDS011;43397;51.530;5.974;2023-07-13T04:28:49;11.32;;;4.35;;
57561;SDS011;43397;51.530;5.974;2023-07-13T04:31:14;9.38;;;3.30;;
57561;SDS011;43397;51.530;5.974;2023-07-13T04:33:40;10.25;;;4.03;;
57561;SDS011;43397;51.530;5.974;2023-07-13T04:36:06;9.13;;;3.60;;
57561;SDS011;43397;51.530;5.974;2023-07-13T04:38:32;9.05;;;4.22;;
57561;SDS011;43397;51.530;5.974;2023-07-13T04:40:59;9.50;;;4.30;;
57561;SDS011;43397;51.530;5.974;2023-07-13T04:43:25;8.20;;;4.25;;
57561;SDS011;43397;51.530;5.974;2023-07-13T04:45:52;12.13;;;4.18;;
57561;SDS011;43397;51.530;5.974;2023-07-13T04:48:18;11.07;;;4.28;;
57561;SDS011;43397;51.530;5.974;2023-07-13T04:50:44;12.68;;;4.28;;
57561;SDS011;43397;51.530;5.974;2023-07-13T04:53:10;16.92;;;5.32;;
57561;SDS011;43397;51.530;5.974;2023-07-13T04:55:35;10.50;;;4.55;;
57561;SDS011;43397;51.530;5.974;2023-07-13T04:58:01;13.07;;;4.32;;
57561;SDS011;43397;51.530;5.974;2023-07-13T05:00:26;12.45;;;5.13;;
57561;SDS011;43397;51.530;5.974;2023-07-13T05:02:54;12.45;;;4.57;;
57561;SDS011;43397;51.530;5.974;2023-07-13T05:05:19;13.02;;;4.90;;
57561;SDS011;43397;51.530;5.974;2023-07-13T05:07:45;10.93;;;4.78;;
57561;SDS011;43397;51.530;5.974;2023-07-13T05:10:10;11.60;;;4.80;;
57561;SDS011;43397;51.530;5.974;2023-07-13T05:12:36;11.80;;;5.32;;
57561;SDS011;43397;51.530;5.974;2023-07-13T05:15:01;12.95;;;5.15;;
57561;SDS011;43397;51.530;5.974;2023-07-13T05:17:27;12.65;;;4.53;;
57561;SDS011;43397;51.530;5.974;2023-07-13T05:19:54;10.90;;;5.70;;
57561;SDS011;43397;51.530;5.974;2023-07-13T05:22:19;15.13;;;5.85;;
57561;SDS011;43397;51.530;5.974;2023-07-13T05:24:45;14.73;;;6.07;;
57561;SDS011;43397;51.530;5.974;2023-07-13T05:27:10;11.75;;;5.03;;
57561;SDS011;43397;51.530;5.974;2023-07-13T05:29:36;15.32;;;5.80;;
57561;SDS011;43397;51.530;5.974;2023-07-13T05:32:02;12.07;;;6.18;;
57561;SDS011;43397;51.530;5.974;2023-07-13T05:34:27;15.98;;;6.05;;
57561;SDS011;43397;51.530;5.974;2023-07-13T05:36:54;12.30;;;5.97;;
57561;SDS011;43397;51.530;5.974;2023-07-13T05:39:20;12.98;;;6.05;;
57561;SDS011;43397;51.530;5.974;2023-07-13T05:41:45;16.85;;;6.07;;
57561;SDS011;43397;51.530;5.974;2023-07-13T05:44:11;13.07;;;5.40;;
57561;SDS011;43397;51.530;5.974;2023-07-13T05:46:37;16.30;;;6.03;;
57561;SDS011;43397;51.530;5.974;2023-07-13T05:49:02;13.38;;;6.28;;
57561;SDS011;43397;51.530;5.974;2023-07-13T05:51:28;14.10;;;5.88;;
57561;SDS011;43397;51.530;5.974;2023-07-13T05:53:55;14.95;;;5.93;;
57561;SDS011;43397;51.530;5.974;2023-07-13T05:56:20;12.15;;;6.00;;
57561;SDS011;43397;51.530;5.974;2023-07-13T05:58:47;11.98;;;6.32;;
57561;SDS011;43397;51.530;5.974;2023-07-13T06:01:13;12.25;;;6.57;;
57561;SDS011;43397;51.530;5.974;2023-07-13T06:03:39;17.75;;;7.90;;
57561;SDS011;43397;51.530;5.974;2023-07-13T06:06:05;15.88;;;6.80;;
57561;SDS011;43397;51.530;5.974;2023-07-13T06:08:30;18.38;;;7.05;;
57561;SDS011;43397;51.530;5.974;2023-07-13T06:11:02;13.32;;;7.60;;
57561;SDS011;43397;51.530;5.974;2023-07-13T06:13:28;15.95;;;7.18;;
57561;SDS011;43397;51.530;5.974;2023-07-13T06:15:53;18.48;;;7.80;;
57561;SDS011;43397;51.530;5.974;2023-07-13T06:18:19;15.02;;;7.57;;
57561;SDS011;43397;51.530;5.974;2023-07-13T06:20:44;17.67;;;8.25;;
57561;SDS011;43397;51.530;5.974;2023-07-13T06:23:10;16.98;;;7.93;;
57561;SDS011;43397;51.530;5.974;2023-07-13T06:25:35;15.75;;;7.65;;
57561;SDS011;43397;51.530;5.974;2023-07-13T06:28:02;13.82;;;7.28;;
57561;SDS011;43397;51.530;5.974;2023-07-13T06:30:28;16.15;;;8.93;;
57561;SDS011;43397;51.530;5.974;2023-07-13T06:32:53;17.70;;;8.80;;
57561;SDS011;43397;51.530;5.974;2023-07-13T06:35:19;14.00;;;7.90;;
57561;SDS011;43397;51.530;5.974;2023-07-13T06:37:44;15.38;;;7.72;;
57561;SDS011;43397;51.530;5.974;2023-07-13T06:40:10;22.02;;;9.30;;
57561;SDS011;43397;51.530;5.974;2023-07-13T06:42:36;20.83;;;10.00;;
57561;SDS011;43397;51.530;5.974;2023-07-13T06:45:03;18.58;;;9.23;;
57561;SDS011;43397;51.530;5.974;2023-07-13T06:47:28;14.65;;;8.70;;
57561;SDS011;43397;51.530;5.974;2023-07-13T06:49:54;20.23;;;9.65;;
57561;SDS011;43397;51.530;5.974;2023-07-13T06:52:19;14.85;;;7.90;;
57561;SDS011;43397;51.530;5.974;2023-07-13T06:54:45;15.80;;;9.13;;
57561;SDS011;43397;51.530;5.974;2023-07-13T06:57:11;16.70;;;9.07;;
57561;SDS011;43397;51.530;5.974;2023-07-13T06:59:36;21.30;;;9.18;;
57561;SDS011;43397;51.530;5.974;2023-07-13T07:02:04;15.60;;;9.35;;
57561;SDS011;43397;51.530;5.974;2023-07-13T07:04:29;16.70;;;9.75;;
57561;SDS011;43397;51.530;5.974;2023-07-13T07:06:55;22.02;;;10.73;;
57561;SDS011;43397;51.530;5.974;2023-07-13T07:09:20;19.42;;;10.07;;
57561;SDS011;43397;51.530;5.974;2023-07-13T07:11:46;17.55;;;10.35;;
57561;SDS011;43397;51.530;5.974;2023-07-13T07:14:11;17.98;;;11.05;;
57561;SDS011;43397;51.530;5.974;2023-07-13T07:16:37;18.02;;;10.07;;
57561;SDS011;43397;51.530;5.974;2023-07-13T07:19:04;18.38;;;9.27;;
57561;SDS011;43397;51.530;5.974;2023-07-13T07:21:29;15.88;;;9.45;;
57561;SDS011;43397;51.530;5.974;2023-07-13T07:23:55;16.35;;;10.10;;
57561;SDS011;43397;51.530;5.974;2023-07-13T07:26:20;16.40;;;8.45;;
57561;SDS011;43397;51.530;5.974;2023-07-13T07:28:46;18.40;;;9.27;;
57561;SDS011;43397;51.530;5.974;2023-07-13T07:31:11;14.45;;;9.30;;
57561;SDS011;43397;51.530;5.974;2023-07-13T07:33:37;16.80;;;9.00;;
57561;SDS011;43397;51.530;5.974;2023-07-13T07:36:04;17.95;;;8.25;;
57561;SDS011;43397;51.530;5.974;2023-07-13T07:38:30;15.85;;;9.20;;
57561;SDS011;43397;51.530;5.974;2023-07-13T07:40:55;16.05;;;9.02;;
57561;SDS011;43397;51.530;5.974;2023-07-13T07:43:21;15.85;;;9.10;;
57561;SDS011;43397;51.530;5.974;2023-07-13T07:45:46;15.40;;;8.52;;
57561;SDS011;43397;51.530;5.974;2023-07-13T07:48:12;14.60;;;8.88;;
57561;SDS011;43397;51.530;5.974;2023-07-13T07:50:37;15.80;;;8.95;;
57561;SDS011;43397;51.530;5.974;2023-07-13T07:53:04;15.80;;;8.48;;
57561;SDS011;43397;51.530;5.974;2023-07-13T07:55:30;15.05;;;8.93;;
57561;SDS011;43397;51.530;5.974;2023-07-13T07:57:57;13.05;;;9.27;;
57561;SDS011;43397;51.530;5.974;2023-07-13T08:00:23;16.42;;;8.95;;
57561;SDS011;43397;51.530;5.974;2023-07-13T08:02:48;18.23;;;9.20;;
57561;SDS011;43397;51.530;5.974;2023-07-13T08:05:14;14.90;;;9.02;;
57561;SDS011;43397;51.530;5.974;2023-07-13T08:07:40;17.85;;;9.77;;
57561;SDS011;43397;51.530;5.974;2023-07-13T08:10:07;16.38;;;8.90;;
57561;SDS011;43397;51.530;5.974;2023-07-13T08:12:33;15.93;;;9.63;;
57561;SDS011;43397;51.530;5.974;2023-07-13T08:14:59;17.33;;;9.63;;
57561;SDS011;43397;51.530;5.974;2023-07-13T08:17:25;17.05;;;9.38;;
57561;SDS011;43397;51.530;5.974;2023-07-13T08:19:50;18.23;;;8.90;;
57561;SDS011;43397;51.530;5.974;2023-07-13T08:22:16;17.95;;;9.60;;
57561;SDS011;43397;51.530;5.974;2023-07-13T08:24:42;18.65;;;8.90;;
57561;SDS011;43397;51.530;5.974;2023-07-13T08:27:09;18.75;;;10.40;;
57561;SDS011;43397;51.530;5.974;2023-07-13T08:29:35;19.15;;;10.57;;
57561;SDS011;43397;51.530;5.974;2023-07-13T08:32:00;16.58;;;9.68;;
57561;SDS011;43397;51.530;5.974;2023-07-13T08:34:26;14.65;;;8.70;;
57561;SDS011;43397;51.530;5.974;2023-07-13T08:36:51;15.93;;;9.20;;
57561;SDS011;43397;51.530;5.974;2023-07-13T08:39:17;17.38;;;9.10;;
57561;SDS011;43397;51.530;5.974;2023-07-13T08:41:43;16.00;;;8.80;;
57561;SDS011;43397;51.530;5.974;2023-07-13T08:44:15;15.13;;;8.45;;
57561;SDS011;43397;51.530;5.974;2023-07-13T08:46:43;12.85;;;7.70;;
57561;SDS011;43397;51.530;5.974;2023-07-13T08:49:10;15.05;;;8.23;;
57561;SDS011;43397;51.530;5.974;2023-07-13T08:51:39;15.48;;;7.85;;
57561;SDS011;43397;51.530;5.974;2023-07-13T08:54:08;13.85;;;8.25;;
57561;SDS011;43397;51.530;5.974;2023-07-13T08:56:35;13.40;;;7.85;;
57561;SDS011;43397;51.530;5.974;2023-07-13T08:59:02;14.80;;;7.63;;
57561;SDS011;43397;51.530;5.974;2023-07-13T09:01:45;14.45;;;7.25;;
57561;SDS011;43397;51.530;5.974;2023-07-13T09:04:14;14.75;;;6.70;;
57561;SDS011;43397;51.530;5.974;2023-07-13T09:06:42;12.55;;;6.97;;
57561;SDS011;43397;51.530;5.974;2023-07-13T09:09:14;12.02;;;6.15;;
57561;SDS011;43397;51.530;5.974;2023-07-13T09:11:45;13.90;;;6.50;;
57561;SDS011;43397;51.530;5.974;2023-07-13T09:14:19;15.45;;;6.05;;
57561;SDS011;43397;51.530;5.974;2023-07-13T09:16:51;11.30;;;4.97;;
57561;SDS011;43397;51.530;5.974;2023-07-13T09:19:19;11.98;;;5.35;;
57561;SDS011;43397;51.530;5.974;2023-07-13T09:21:46;9.05;;;4.60;;
57561;SDS011;43397;51.530;5.974;2023-07-13T09:24:25;10.80;;;4.93;;
57561;SDS011;43397;51.530;5.974;2023-07-13T09:26:51;10.52;;;5.20;;
57561;SDS011;43397;51.530;5.974;2023-07-13T09:29:19;13.13;;;6.35;;
57561;SDS011;43397;51.530;5.974;2023-07-13T09:31:48;9.77;;;5.20;;
57561;SDS011;43397;51.530;5.974;2023-07-13T09:34:16;8.50;;;4.10;;
57561;SDS011;43397;51.530;5.974;2023-07-13T09:36:42;11.32;;;4.68;;
57561;SDS011;43397;51.530;5.974;2023-07-13T09:39:09;9.63;;;4.10;;
57561;SDS011;43397;51.530;5.974;2023-07-13T09:41:39;10.77;;;4.95;;
57561;SDS011;43397;51.530;5.974;2023-07-13T09:46:31;13.38;;;4.40;;
57561;SDS011;43397;51.530;5.974;2023-07-13T09:48:57;11.52;;;4.38;;
57561;SDS011;43397;51.530;5.974;2023-07-13T09:51:24;6.55;;;4.00;;
57561;SDS011;43397;51.530;5.974;2023-07-13T09:53:49;8.35;;;4.13;;
57561;SDS011;43397;51.530;5.974;2023-07-13T09:56:21;12.18;;;5.25;;
57561;SDS011;43397;51.530;5.974;2023-07-13T09:58:47;10.95;;;4.35;;
57561;SDS011;43397;51.530;5.974;2023-07-13T10:01:12;11.38;;;5.22;;
57561;SDS011;43397;51.530;5.974;2023-07-13T10:03:38;7.93;;;4.63;;
57561;SDS011;43397;51.530;5.974;2023-07-13T10:06:09;8.75;;;4.07;;
57561;SDS011;43397;51.530;5.974;2023-07-13T10:08:37;9.90;;;4.18;;
57561;SDS011;43397;51.530;5.974;2023-07-13T10:11:08;10.10;;;4.15;;
57561;SDS011;43397;51.530;5.974;2023-07-13T10:13:35;8.27;;;4.65;;
57561;SDS011;43397;51.530;5.974;2023-07-13T10:16:01;10.27;;;4.32;;
57561;SDS011;43397;51.530;5.974;2023-07-13T10:18:28;9.82;;;4.43;;
57561;SDS011;43397;51.530;5.974;2023-07-13T10:20:54;7.40;;;3.83;;
57561;SDS011;43397;51.530;5.974;2023-07-13T10:23:24;7.95;;;3.58;;
57561;SDS011;43397;51.530;5.974;2023-07-13T10:25:54;7.07;;;3.67;;
57561;SDS011;43397;51.530;5.974;2023-07-13T10:28:23;8.80;;;3.53;;
57561;SDS011;43397;51.530;5.974;2023-07-13T10:30:50;8.93;;;3.55;;
57561;SDS011;43397;51.530;5.974;2023-07-13T10:33:18;8.65;;;4.32;;
57561;SDS011;43397;51.530;5.974;2023-07-13T10:35:43;8.10;;;3.20;;
57561;SDS011;43397;51.530;5.974;2023-07-13T10:40:38;9.30;;;3.78;;
57561;SDS011;43397;51.530;5.974;2023-07-13T10:43:09;9.35;;;4.38;;
57561;SDS011;43397;51.530;5.974;2023-07-13T10:45:38;8.63;;;3.60;;
57561;SDS011;43397;51.530;5.974;2023-07-13T10:48:04;7.70;;;3.40;;
57561;SDS011;43397;51.530;5.974;2023-07-13T10:50:30;9.90;;;3.33;;
57561;SDS011;43397;51.530;5.974;2023-07-13T10:53:01;8.88;;;3.40;;
57561;SDS011;43397;51.530;5.974;2023-07-13T10:55:30;9.13;;;3.90;;
57561;SDS011;43397;51.530;5.974;2023-07-13T10:57:59;10.07;;;3.72;;
57561;SDS011;43397;51.530;5.974;2023-07-13T11:00:26;8.25;;;3.17;;
57561;SDS011;43397;51.530;5.974;2023-07-13T11:02:58;7.22;;;3.05;;
57561;SDS011;43397;51.530;5.974;2023-07-13T11:05:26;8.05;;;3.53;;
57561;SDS011;43397;51.530;5.974;2023-07-13T11:07:53;8.73;;;2.58;;
57561;SDS011;43397;51.530;5.974;2023-07-13T11:13:00;8.07;;;2.70;;
57561;SDS011;43397;51.530;5.974;2023-07-13T11:15:32;7.50;;;2.60;;
57561;SDS011;43397;51.530;5.974;2023-07-13T11:18:01;7.50;;;3.03;;
57561;SDS011;43397;51.530;5.974;2023-07-13T11:23:06;7.75;;;3.05;;
57561;SDS011;43397;51.530;5.974;2023-07-13T11:25:33;7.65;;;2.88;;
57561;SDS011;43397;51.530;5.974;2023-07-13T11:28:06;11.43;;;3.15;;
57561;SDS011;43397;51.530;5.974;2023-07-13T11:30:35;7.55;;;2.55;;
57561;SDS011;43397;51.530;5.974;2023-07-13T11:33:02;8.95;;;3.00;;
57561;SDS011;43397;51.530;5.974;2023-07-13T11:35:37;7.95;;;2.25;;
57561;SDS011;43397;51.530;5.974;2023-07-13T11:38:08;5.22;;;2.08;;
57561;SDS011;43397;51.530;5.974;2023-07-13T11:40:35;6.72;;;2.78;;
57561;SDS011;43397;51.530;5.974;2023-07-13T11:43:01;8.18;;;3.15;;
57561;SDS011;43397;51.530;5.974;2023-07-13T11:45:26;7.38;;;3.20;;
57561;SDS011;43397;51.530;5.974;2023-07-13T11:47:53;7.25;;;3.83;;
57561;SDS011;43397;51.530;5.974;2023-07-13T11:50:19;11.20;;;5.25;;
57561;SDS011;43397;51.530;5.974;2023-07-13T11:52:45;8.35;;;5.10;;
57561;SDS011;43397;51.530;5.974;2023-07-13T11:55:13;11.93;;;5.93;;
57561;SDS011;43397;51.530;5.974;2023-07-13T11:57:40;10.30;;;7.18;;
57561;SDS011;43397;51.530;5.974;2023-07-13T12:00:11;13.20;;;7.43;;
57561;SDS011;43397;51.530;5.974;2023-07-13T12:02:38;11.65;;;6.13;;
57561;SDS011;43397;51.530;5.974;2023-07-13T12:05:05;12.18;;;6.25;;
57561;SDS011;43397;51.530;5.974;2023-07-13T12:07:32;11.48;;;6.18;;
57561;SDS011;43397;51.530;5.974;2023-07-13T12:10:00;12.20;;;5.13;;
57561;SDS011;43397;51.530;5.974;2023-07-13T12:12:28;10.45;;;5.25;;
57561;SDS011;43397;51.530;5.974;2023-07-13T12:14:54;11.15;;;5.05;;
57561;SDS011;43397;51.530;5.974;2023-07-13T12:17:20;11.75;;;4.93;;
57561;SDS011;43397;51.530;5.974;2023-07-13T12:19:47;11.10;;;4.70;;
57561;SDS011;43397;51.530;5.974;2023-07-13T12:22:14;9.02;;;4.47;;
57561;SDS011;43397;51.530;5.974;2023-07-13T12:24:41;12.18;;;5.28;;
57561;SDS011;43397;51.530;5.974;2023-07-13T12:27:13;9.82;;;4.88;;
57561;SDS011;43397;51.530;5.974;2023-07-13T12:29:48;13.38;;;5.45;;
57561;SDS011;43397;51.530;5.974;2023-07-13T12:32:15;8.32;;;4.82;;
57561;SDS011;43397;51.530;5.974;2023-07-13T12:34:51;9.00;;;4.17;;
57561;SDS011;43397;51.530;5.974;2023-07-13T12:37:18;11.38;;;4.85;;
57561;SDS011;43397;51.530;5.974;2023-07-13T12:42:18;29.38;;;8.32;;
57561;SDS011;43397;51.530;5.974;2023-07-13T12:44:46;21.40;;;19.75;;
57561;SDS011;43397;51.530;5.974;2023-07-13T12:47:12;0.10;;;0.10;;
57561;SDS011;43397;51.530;5.974;2023-07-13T12:49:40;1.23;;;0.90;;
57561;SDS011;43397;51.530;5.974;2023-07-13T12:52:10;0.10;;;0.10;;
57561;SDS011;43397;51.530;5.974;2023-07-13T12:54:40;0.90;;;0.90;;
57561;SDS011;43397;51.530;5.974;2023-07-13T12:57:07;0.82;;;0.82;;
57561;SDS011;43397;51.530;5.974;2023-07-13T12:59:43;0.20;;;0.20;;
57561;SDS011;43397;51.530;5.974;2023-07-13T13:02:17;0.90;;;0.68;;
57561;SDS011;43397;51.530;5.974;2023-07-13T13:04:52;2.25;;;2.03;;
57561;SDS011;43397;51.530;5.974;2023-07-13T13:07:17;0.43;;;0.43;;
57561;SDS011;43397;51.530;5.974;2023-07-13T13:09:43;0.55;;;0.55;;
57561;SDS011;43397;51.530;5.974;2023-07-13T13:12:09;1.33;;;1.20;;
57561;SDS011;43397;51.530;5.974;2023-07-13T13:14:35;0.60;;;0.50;;
57561;SDS011;43397;51.530;5.974;2023-07-13T13:17:02;1.27;;;0.75;;
57561;SDS011;43397;51.530;5.974;2023-07-13T13:19:32;4.20;;;2.50;;
57561;SDS011;43397;51.530;5.974;2023-07-13T13:21:58;0.57;;;0.47;;
57561;SDS011;43397;51.530;5.974;2023-07-13T13:24:26;1.13;;;0.52;;
57561;SDS011;43397;51.530;5.974;2023-07-13T13:26:53;0.80;;;0.80;;
57561;SDS011;43397;51.530;5.974;2023-07-13T13:29:20;0.47;;;0.45;;
57561;SDS011;43397;51.530;5.974;2023-07-13T13:31:47;0.82;;;0.52;;
57561;SDS011;43397;51.530;5.974;2023-07-13T13:34:15;0.20;;;0.20;;
57561;SDS011;43397;51.530;5.974;2023-07-13T13:36:42;1.63;;;1.50;;
57561;SDS011;43397;51.530;5.974;2023-07-13T13:39:18;1.25;;;0.98;;
57561;SDS011;43397;51.530;5.974;2023-07-13T13:41:45;0.77;;;0.63;;
57561;SDS011;43397;51.530;5.974;2023-07-13T13:44:12;1.58;;;0.30;;
57561;SDS011;43397;51.530;5.974;2023-07-13T13:46:39;0.30;;;0.30;;
57561;SDS011;43397;51.530;5.974;2023-07-13T13:49:07;0.55;;;0.55;;
57561;SDS011;43397;51.530;5.974;2023-07-13T13:51:39;0.00;;;0.00;;
57561;SDS011;43397;51.530;5.974;2023-07-13T13:54:05;0.85;;;0.38;;
57561;SDS011;43397;51.530;5.974;2023-07-13T13:56:36;0.20;;;0.20;;
57561;SDS011;43397;51.530;5.974;2023-07-13T13:59:02;0.82;;;0.40;;
57561;SDS011;43397;51.530;5.974;2023-07-13T14:01:27;1.55;;;0.20;;
57561;SDS011;43397;51.530;5.974;2023-07-13T14:03:56;2.40;;;0.77;;
57561;SDS011;43397;51.530;5.974;2023-07-13T14:06:22;0.00;;;0.00;;
57561;SDS011;43397;51.530;5.974;2023-07-13T14:08:49;0.10;;;0.10;;
57561;SDS011;43397;51.530;5.974;2023-07-13T14:11:16;0.30;;;0.15;;
57561;SDS011;43397;51.530;5.974;2023-07-13T14:13:44;0.10;;;0.10;;
57561;SDS011;43397;51.530;5.974;2023-07-13T14:18:41;0.47;;;0.43;;
57561;SDS011;43397;51.530;5.974;2023-07-13T14:21:11;0.25;;;0.13;;
57561;SDS011;43397;51.530;5.974;2023-07-13T14:23:39;0.63;;;0.60;;
57561;SDS011;43397;51.530;5.974;2023-07-13T14:26:08;0.73;;;0.55;;
57561;SDS011;43397;51.530;5.974;2023-07-13T14:28:36;0.30;;;0.30;;
57561;SDS011;43397;51.530;5.974;2023-07-13T14:31:05;0.70;;;0.30;;
57561;SDS011;43397;51.530;5.974;2023-07-13T14:33:31;0.52;;;0.52;;
57561;SDS011;43397;51.530;5.974;2023-07-13T14:35:57;0.40;;;0.40;;
57561;SDS011;43397;51.530;5.974;2023-07-13T14:38:23;0.30;;;0.30;;
57561;SDS011;43397;51.530;5.974;2023-07-13T14:40:49;0.20;;;0.20;;
57561;SDS011;43397;51.530;5.974;2023-07-13T14:43:16;1.40;;;1.30;;
57561;SDS011;43397;51.530;5.974;2023-07-13T14:45:44;3.25;;;2.10;;
57561;SDS011;43397;51.530;5.974;2023-07-13T14:50:40;8.65;;;5.07;;
57561;SDS011;43397;51.530;5.974;2023-07-13T14:53:08;8.13;;;4.93;;
57561;SDS011;43397;51.530;5.974;2023-07-13T14:55:35;9.57;;;4.78;;